createdAt,value
2023-05-08T00:00:51.138Z,1.6500
2023-05-08T00:01:51.772Z,1.3111
2023-05-08T00:02:52.572Z,1.1500
2023-05-08T00:03:53.743Z,0.9944
2023-05-08T00:04:54.713Z,0.9556
2023-05-08T00:05:55.504Z,2.5000
2023-05-08T00:06:56.162Z,1.1389
2023-05-08T00:07:56.866Z,1.9333
2023-05-08T00:08:57.557Z,1.0889
2023-05-08T00:09:58.221Z,1.0333
2023-05-08T00:10:58.881Z,1.6667
2023-05-08T00:11:59.568Z,2.4278
2023-05-08T00:13:00.276Z,1.4500
2023-05-08T00:14:00.887Z,1.1667
2023-05-08T00:15:01.602Z,1.0667
2023-05-08T00:16:02.251Z,1.7444
2023-05-08T00:17:02.975Z,1.0667
2023-05-08T00:18:03.698Z,1.1722
2023-05-08T00:19:04.368Z,1.1056
2023-05-08T00:20:05.017Z,1.0389
2023-05-08T00:21:05.744Z,2.8667
2023-05-08T00:22:06.375Z,1.6778
2023-05-08T00:23:07.112Z,1.6056
2023-05-08T00:24:07.721Z,1.5389
2023-05-08T00:25:08.441Z,1.3111
2023-05-08T00:26:09.121Z,1.2056
2023-05-08T00:27:09.824Z,1.6500
2023-05-08T00:28:10.479Z,1.3556
2023-05-08T00:29:11.243Z,1.4000
2023-05-08T00:30:12.211Z,1.5944
2023-05-08T00:31:13.014Z,1.3944
2023-05-08T00:32:13.710Z,1.0944
2023-05-08T00:33:14.402Z,1.7500
2023-05-08T00:34:14.988Z,1.5722
2023-05-08T00:35:15.741Z,1.1889
2023-05-08T00:36:16.367Z,1.8222
2023-05-08T00:37:17.090Z,1.4722
2023-05-08T00:38:17.805Z,0.8611
2023-05-08T00:39:18.569Z,1.2667
2023-05-08T00:40:19.295Z,1.0722
2023-05-08T00:41:20.021Z,1.7611
2023-05-08T00:42:20.664Z,1.6611
2023-05-08T00:43:22.404Z,1.1111
2023-05-08T00:44:23.025Z,1.7778
2023-05-08T00:45:23.727Z,1.3944
2023-05-08T00:46:24.421Z,1.2944
2023-05-08T00:47:25.110Z,1.7611
2023-05-08T00:48:25.744Z,1.6611
2023-05-08T00:49:26.360Z,1.7556
2023-05-08T00:50:27.065Z,1.6944
2023-05-08T00:51:27.802Z,2.0833
2023-05-08T00:52:28.531Z,2.3889
2023-05-08T00:53:29.392Z,1.2167
2023-05-08T00:54:30.136Z,1.3222
2023-05-08T00:55:30.928Z,1.8278
2023-05-08T00:56:31.716Z,1.5000
2023-05-08T00:57:32.611Z,1.7778
2023-05-08T00:58:33.354Z,1.2556
2023-05-08T00:59:34.197Z,1.1111
2023-05-08T01:00:34.944Z,1.4944
2023-05-08T01:01:35.860Z,2.4778
2023-05-08T01:02:36.545Z,1.6278
2023-05-08T01:03:37.436Z,1.5278
2023-05-08T01:04:38.125Z,1.4278
2023-05-08T01:05:38.768Z,1.1389
2023-05-08T01:06:39.481Z,1.6778
2023-05-08T01:07:40.184Z,1.8167
2023-05-08T01:08:40.874Z,1.9333
2023-05-08T01:09:41.592Z,1.6222
2023-05-08T01:10:42.264Z,1.7222
2023-05-08T01:11:42.974Z,1.8389
2023-05-08T01:12:44.612Z,2.0500
2023-05-08T01:13:45.265Z,2.2333
2023-05-08T01:14:45.885Z,2.7167
2023-05-08T01:15:46.606Z,4.8611
2023-05-08T01:16:47.144Z,6.0333
2023-05-08T01:17:47.838Z,5.4889
2023-05-08T01:18:48.488Z,3.6111
2023-05-08T01:19:49.121Z,3.5222
2023-05-08T01:20:49.724Z,2.7944
2023-05-08T01:21:50.489Z,2.5222
2023-05-08T01:22:51.051Z,2.2611
2023-05-08T01:23:51.674Z,2.1778
2023-05-08T01:24:53.415Z,3.3333
2023-05-08T01:25:54.014Z,2.8722
2023-05-08T01:26:54.765Z,4.2167
2023-05-08T01:27:55.364Z,4.2778
2023-05-08T01:28:56.013Z,4.4444
2023-05-08T01:29:56.718Z,4.7000
2023-05-08T01:30:57.292Z,5.3000
2023-05-08T01:31:58.099Z,4.6278
2023-05-08T01:32:58.736Z,5.9111
2023-05-08T01:34:00.529Z,5.2111
2023-05-08T01:35:01.140Z,5.9278
2023-05-08T01:36:01.792Z,5.4333
2023-05-08T01:37:02.404Z,5.9556
2023-05-08T01:38:03.073Z,5.1722
2023-05-08T01:39:03.694Z,5.7389
2023-05-08T01:40:04.323Z,4.9278
2023-05-08T01:41:04.953Z,5.1167
2023-05-08T01:42:05.541Z,5.3889
2023-05-08T01:43:06.212Z,4.4889
2023-05-08T01:44:06.821Z,4.5444
2023-05-08T01:45:07.490Z,4.8667
2023-05-08T01:46:08.156Z,4.2444
2023-05-08T01:47:08.889Z,3.6889
2023-05-08T01:48:09.621Z,3.7889
2023-05-08T01:49:10.267Z,3.1889
2023-05-08T01:50:11.166Z,3.6444
2023-05-08T01:51:11.996Z,3.4333
2023-05-08T01:52:12.606Z,3.2556
2023-05-08T01:53:13.247Z,3.8778
2023-05-08T01:54:13.868Z,3.5778
2023-05-08T01:55:14.579Z,4.3333
2023-05-08T01:56:15.152Z,3.1778
2023-05-08T01:57:15.804Z,4.1056
2023-05-08T01:58:16.389Z,2.8278
2023-05-08T01:59:17.058Z,3.1167
2023-05-08T02:00:17.655Z,3.2500
2023-05-08T02:01:18.430Z,3.4222
2023-05-08T02:02:19.165Z,3.2611
2023-05-08T02:03:19.840Z,2.2889
2023-05-08T02:04:20.543Z,2.1278
2023-05-08T02:05:21.101Z,2.6389
2023-05-08T02:06:21.718Z,2.3389
2023-05-08T02:07:23.397Z,2.2611
2023-05-08T02:08:23.989Z,2.2389
2023-05-08T02:09:24.778Z,2.7444
2023-05-08T02:10:25.385Z,3.1611
2023-05-08T02:11:26.092Z,3.1222
2023-05-08T02:12:26.705Z,2.9500
2023-05-08T02:13:27.521Z,2.1000
2023-05-08T02:14:28.117Z,2.8944
2023-05-08T02:15:28.718Z,2.8889
2023-05-08T02:16:29.431Z,2.6889
2023-05-08T02:17:30.078Z,3.1778
2023-05-08T02:18:30.744Z,2.3278
2023-05-08T02:19:31.400Z,2.2722
2023-05-08T02:20:32.018Z,2.5556
2023-05-08T02:21:32.680Z,2.3444
2023-05-08T02:22:33.458Z,2.7056
2023-05-08T02:23:34.138Z,3.4611
2023-05-08T02:24:34.814Z,3.1778
2023-05-08T02:25:35.417Z,3.1889
2023-05-08T02:26:36.079Z,2.3333
2023-05-08T02:27:36.662Z,2.9111
2023-05-08T02:28:37.321Z,2.6000
2023-05-08T02:29:38.016Z,2.7778
2023-05-08T02:30:38.660Z,2.5444
2023-05-08T02:31:39.269Z,5.0389
2023-05-08T02:33:01.030Z,2.7278
2023-05-08T02:33:42.214Z,4.3056
2023-05-08T02:34:51.207Z,2.5583
2023-05-08T02:35:42.904Z,3.6500
2023-05-08T02:36:43.523Z,2.8000
2023-05-08T02:37:44.188Z,2.6556
2023-05-08T02:38:44.783Z,2.8111
2023-05-08T02:39:45.463Z,3.2222
2023-05-08T02:40:46.084Z,4.0389
2023-05-08T02:41:46.769Z,3.0833
2023-05-08T02:42:47.350Z,2.8667
2023-05-08T02:43:48.050Z,3.4722
2023-05-08T02:44:48.648Z,2.7889
2023-05-08T02:45:49.329Z,3.2111
2023-05-08T02:46:49.962Z,3.4056
2023-05-08T02:47:50.686Z,3.8333
2023-05-08T02:48:51.323Z,4.0167
2023-05-08T02:49:51.933Z,3.6167
2023-05-08T02:50:52.568Z,3.6556
2023-05-08T02:51:53.157Z,2.8278
2023-05-08T02:52:53.794Z,2.7722
2023-05-08T02:53:54.422Z,3.4333
2023-05-08T02:54:55.061Z,3.0722
2023-05-08T02:55:55.678Z,3.0667
2023-05-08T02:56:56.241Z,2.8500
2023-05-08T02:57:56.887Z,2.6889
2023-05-08T02:58:57.507Z,2.1833
2023-05-08T02:59:58.229Z,2.2722
2023-05-08T03:00:58.905Z,2.5833
2023-05-08T03:01:59.506Z,2.9611
2023-05-08T03:03:00.373Z,1.9778
2023-05-08T03:04:01.064Z,1.9611
2023-05-08T03:05:01.752Z,2.3944
2023-05-08T03:06:02.387Z,2.8500
2023-05-08T03:07:03.081Z,1.9111
2023-05-08T03:08:03.750Z,2.5056
2023-05-08T03:09:04.445Z,2.1000
2023-05-08T03:10:05.056Z,1.5500
2023-05-08T03:11:05.772Z,1.9389
2023-05-08T03:12:06.401Z,1.6333
2023-05-08T03:13:07.139Z,1.9389
2023-05-08T03:14:07.816Z,1.9389
2023-05-08T03:15:08.467Z,2.0167
2023-05-08T03:16:09.149Z,2.3611
2023-05-08T03:17:09.783Z,1.9056
2023-05-08T03:18:10.484Z,1.7000
2023-05-08T03:19:11.168Z,2.4222
2023-05-08T03:20:12.052Z,1.5278
2023-05-08T03:21:12.884Z,1.9278
2023-05-08T03:22:13.495Z,1.6833
2023-05-08T03:23:14.235Z,1.8944
2023-05-08T03:24:14.858Z,1.4778
2023-05-08T03:25:15.561Z,2.8167
2023-05-08T03:26:16.238Z,1.8611
2023-05-08T03:27:16.933Z,1.8222
2023-05-08T03:28:17.576Z,1.8389
2023-05-08T03:29:18.296Z,1.8111
2023-05-08T03:30:18.943Z,1.5500
2023-05-08T03:31:19.701Z,1.9778
2023-05-08T03:32:20.300Z,2.1389
2023-05-08T03:33:21.023Z,1.7778
2023-05-08T03:34:21.689Z,1.6833
2023-05-08T03:35:22.418Z,2.1167
2023-05-08T03:36:23.064Z,1.4444
2023-05-08T03:37:23.693Z,1.3222
2023-05-08T03:38:24.377Z,1.4444
2023-05-08T03:39:25.097Z,1.6611
2023-05-08T03:40:26.123Z,1.6444
2023-05-08T03:41:26.816Z,1.0389
2023-05-08T03:42:27.452Z,1.4333
2023-05-08T03:43:28.176Z,1.4722
2023-05-08T03:44:28.819Z,2.7111
2023-05-08T03:45:29.510Z,1.7944
2023-05-08T03:46:30.174Z,1.6611
2023-05-08T03:47:30.900Z,1.5556
2023-05-08T03:48:31.505Z,1.6111
2023-05-08T03:49:32.223Z,1.0722
2023-05-08T03:50:32.859Z,2.1556
2023-05-08T03:51:33.558Z,2.0056
2023-05-08T03:52:34.256Z,1.8389
2023-05-08T03:53:34.910Z,1.3333
2023-05-08T03:54:35.651Z,1.6111
2023-05-08T03:55:36.323Z,1.3722
2023-05-08T03:56:37.032Z,1.6000
2023-05-08T03:57:37.768Z,2.2833
2023-05-08T03:58:38.421Z,1.8944
2023-05-08T03:59:39.047Z,1.0111
2023-05-08T04:00:39.731Z,1.2278
2023-05-08T04:01:40.414Z,1.3722
2023-05-08T04:02:42.279Z,1.2167
2023-05-08T04:03:43.265Z,1.0667
2023-05-08T04:04:44.014Z,1.6500
2023-05-08T04:05:44.660Z,1.0167
2023-05-08T04:08:49.732Z,1.7000
2023-05-08T04:08:49.732Z,1.2500
2023-05-08T04:08:49.732Z,1.5111
2023-05-08T04:09:50.349Z,1.5250
2023-05-08T04:10:51.065Z,1.3556
2023-05-08T04:11:51.713Z,1.1889
2023-05-08T04:12:52.477Z,1.5833
2023-05-08T04:13:53.127Z,1.7222
2023-05-08T04:15:04.753Z,2.2278
2023-05-08T04:15:55.685Z,1.6611
2023-05-08T04:16:56.439Z,1.2933
2023-05-08T04:17:57.115Z,2.2667
2023-05-08T04:18:57.947Z,1.3333
2023-05-08T04:19:58.582Z,1.7167
2023-05-08T04:21:00.292Z,2.0889
2023-05-08T04:22:01.112Z,2.3278
2023-05-08T04:23:01.800Z,1.9667
2023-05-08T04:24:02.514Z,2.2222
2023-05-08T04:25:03.146Z,1.8500
2023-05-08T04:26:05.541Z,1.5333
2023-05-08T04:27:06.250Z,2.0556
2023-05-08T04:28:07.000Z,1.2278
2023-05-08T04:29:07.626Z,1.6722
2023-05-08T04:30:08.360Z,2.1278
2023-05-08T04:31:09.052Z,2.6111
2023-05-08T04:32:09.804Z,1.4111
2023-05-08T04:33:10.555Z,2.3667
2023-05-08T04:34:11.177Z,1.3167
2023-05-08T04:35:12.045Z,1.5167
2023-05-08T04:36:12.812Z,1.4722
2023-05-08T04:37:13.518Z,1.7500
2023-05-08T04:38:14.137Z,2.0444
2023-05-08T04:39:14.888Z,1.4000
2023-05-08T04:40:15.537Z,1.3000
2023-05-08T04:41:16.360Z,1.6167
2023-05-08T04:42:16.987Z,1.4611
2023-05-08T04:43:17.710Z,1.6333
2023-05-08T04:44:18.415Z,1.2722
2023-05-08T04:45:19.163Z,1.3222
2023-05-08T04:46:19.911Z,1.2444
2023-05-08T04:47:20.651Z,0.9000
2023-05-08T04:48:21.361Z,1.3833
2023-05-08T04:49:22.031Z,1.4111
2023-05-08T04:50:22.762Z,1.3167
2023-05-08T04:51:23.452Z,2.1667
2023-05-08T04:52:24.163Z,2.0000
2023-05-08T04:53:24.879Z,1.1333
2023-05-08T04:54:25.648Z,1.3667
2023-05-08T04:55:26.224Z,1.2056
2023-05-08T04:56:26.924Z,1.0000
2023-05-08T04:57:27.602Z,0.9222
2023-05-08T04:58:28.221Z,1.0889
2023-05-08T04:59:28.966Z,1.5000
2023-05-08T05:00:29.617Z,1.2667
2023-05-08T05:01:30.414Z,1.0833
2023-05-08T05:02:33.177Z,0.9444
2023-05-08T05:03:33.881Z,1.3056
2023-05-08T05:04:34.516Z,2.1333
2023-05-08T05:05:36.426Z,1.8222
2023-05-08T05:06:35.713Z,1.3611
2023-05-08T05:07:36.349Z,3.1000
2023-05-08T05:08:37.031Z,2.8333
2023-05-08T05:09:37.811Z,1.3667
2023-05-08T05:10:38.452Z,1.6944
2023-05-08T05:11:39.170Z,2.3722
2023-05-08T05:12:39.839Z,1.2500
2023-05-08T05:13:40.505Z,1.0222
2023-05-08T05:14:41.211Z,1.6111
2023-05-08T05:15:42.017Z,1.8722
2023-05-08T05:16:42.669Z,1.7333
2023-05-08T05:17:43.341Z,1.3111
2023-05-08T05:18:44.138Z,1.6722
2023-05-08T05:19:44.867Z,1.7278
2023-05-08T05:20:45.513Z,1.5556
2023-05-08T05:21:46.156Z,1.1833
2023-05-08T05:22:46.957Z,1.3056
2023-05-08T05:23:47.595Z,1.1778
2023-05-08T05:24:48.226Z,1.2389
2023-05-08T05:25:48.898Z,1.0722
2023-05-08T05:26:49.581Z,1.1444
2023-05-08T05:27:50.266Z,1.7333
2023-05-08T05:28:50.884Z,0.9500
2023-05-08T05:29:51.611Z,0.8444
2023-05-08T05:30:52.328Z,1.1444
2023-05-08T05:31:53.032Z,2.6222
2023-05-08T05:32:54.145Z,1.1611
2023-05-08T05:33:54.811Z,1.2611
2023-05-08T05:34:55.444Z,1.3611
2023-05-08T05:35:56.142Z,1.0111
2023-05-08T05:36:56.794Z,0.8667
2023-05-08T05:37:57.509Z,1.4500
2023-05-08T05:38:58.128Z,1.1611
2023-05-08T05:39:58.917Z,1.4611
2023-05-08T05:40:59.621Z,1.8000
2023-05-08T05:42:00.240Z,0.9778
2023-05-08T05:43:00.954Z,1.1444
2023-05-08T05:44:01.597Z,1.2444
2023-05-08T05:45:02.331Z,0.7556
2023-05-08T05:46:03.182Z,1.0278
2023-05-08T05:47:04.008Z,1.3611
2023-05-08T05:48:04.635Z,1.5167
2023-05-08T05:49:05.335Z,2.1056
2023-05-08T05:50:05.978Z,2.1611
2023-05-08T05:51:06.642Z,1.3778
2023-05-08T05:52:07.287Z,1.3056
2023-05-08T05:53:08.025Z,1.2111
2023-05-08T05:54:08.724Z,1.2222
2023-05-08T05:55:09.420Z,1.2000
2023-05-08T05:56:10.087Z,1.8889
2023-05-08T05:57:10.720Z,1.2889
2023-05-08T05:58:11.375Z,1.2222
2023-05-08T05:59:12.057Z,1.3833
2023-05-08T06:00:12.714Z,1.3222
2023-05-08T06:01:13.417Z,1.1222
2023-05-08T06:02:14.161Z,1.3722
2023-05-08T06:03:14.871Z,1.5611
2023-05-08T06:04:15.540Z,1.5833
2023-05-08T06:05:16.128Z,2.1556
2023-05-08T06:06:16.874Z,1.5000
2023-05-08T06:07:17.506Z,1.3500
2023-05-08T06:08:18.180Z,1.1056
2023-05-08T06:09:18.886Z,2.1000
2023-05-08T06:10:19.552Z,1.4889
2023-05-08T06:11:20.225Z,1.4222
2023-05-08T06:12:20.897Z,1.3833
2023-05-08T06:13:21.594Z,1.8167
2023-05-08T06:14:22.260Z,1.3944
2023-05-08T06:15:22.948Z,2.0278
2023-05-08T06:16:23.702Z,1.6556
2023-05-08T06:17:24.273Z,1.2667
2023-05-08T06:18:24.966Z,1.3833
2023-05-08T06:19:26.581Z,1.1833
2023-05-08T06:20:27.278Z,1.5222
2023-05-08T06:21:27.977Z,1.4722
2023-05-08T06:22:29.678Z,1.0833
2023-05-08T06:23:30.437Z,1.4222
2023-05-08T06:24:31.116Z,1.2333
2023-05-08T06:25:31.856Z,2.1944
2023-05-08T06:26:32.575Z,1.1667
2023-05-08T06:27:33.235Z,1.6833
2023-05-08T06:28:33.890Z,1.2722
2023-05-08T06:29:34.629Z,1.8611
2023-05-08T06:30:35.292Z,1.4389
2023-05-08T06:31:36.279Z,1.7111
2023-05-08T06:32:36.984Z,1.3167
2023-05-08T06:33:37.708Z,1.2500
2023-05-08T06:34:38.349Z,1.4333
2023-05-08T06:35:39.016Z,1.6500
2023-05-08T06:36:39.783Z,1.9444
2023-05-08T06:37:40.418Z,2.0056
2023-05-08T06:38:41.084Z,1.0500
2023-05-08T06:39:41.715Z,2.3278
2023-05-08T06:40:42.435Z,1.7111
2023-05-08T06:41:43.131Z,1.5556
2023-05-08T06:42:43.770Z,1.8056
2023-05-08T06:43:44.499Z,1.4278
2023-05-08T06:44:45.200Z,1.8278
2023-05-08T06:45:45.852Z,1.4722
2023-05-08T06:46:46.584Z,2.2444
2023-05-08T06:47:47.230Z,1.4333
2023-05-08T06:48:47.908Z,1.3944
2023-05-08T06:49:48.612Z,1.1944
2023-05-08T06:50:49.291Z,1.7333
2023-05-08T06:51:49.934Z,1.5611
2023-05-08T06:52:50.706Z,1.6111
2023-05-08T06:53:51.351Z,1.6000
2023-05-08T06:54:52.037Z,1.9222
2023-05-08T06:55:52.742Z,1.6056
2023-05-08T06:56:54.344Z,1.8556
2023-05-08T06:57:55.083Z,1.3278
2023-05-08T06:59:07.198Z,1.1778
2023-05-08T06:59:55.800Z,1.7278
2023-05-08T07:00:56.435Z,1.7188
2023-05-08T07:01:57.215Z,1.5667
2023-05-08T07:02:57.951Z,1.4778
2023-05-08T07:03:58.550Z,1.6667
2023-05-08T07:04:59.314Z,0.8556
2023-05-08T07:05:59.967Z,1.2667
2023-05-08T07:07:00.589Z,1.3111
2023-05-08T07:08:01.282Z,1.1778
2023-05-08T07:09:01.977Z,2.3833
2023-05-08T07:10:02.718Z,1.7667
2023-05-08T07:11:03.393Z,1.3611
2023-05-08T07:12:04.087Z,1.6778
2023-05-08T07:13:04.706Z,0.8556
2023-05-08T07:14:05.324Z,0.7222
2023-05-08T07:15:17.707Z,1.6278
2023-05-08T07:16:06.212Z,0.7778
2023-05-08T07:17:06.865Z,1.1187
2023-05-08T07:18:07.549Z,1.2056
2023-05-08T07:19:08.140Z,1.6000
2023-05-08T07:20:08.866Z,0.8167
2023-05-08T07:21:09.481Z,0.6500
2023-05-08T07:22:10.236Z,0.6889
2023-05-08T07:23:10.849Z,1.1556
2023-05-08T07:24:11.491Z,1.0333
2023-05-08T07:25:12.368Z,1.1167
2023-05-08T07:26:13.240Z,0.9000
2023-05-08T07:27:13.915Z,1.2722
2023-05-08T07:28:14.552Z,1.3944
2023-05-08T07:29:15.242Z,0.9889
2023-05-08T07:30:15.884Z,0.8778
2023-05-08T07:31:16.566Z,1.0389
2023-05-08T07:32:17.265Z,1.3000
2023-05-08T07:33:17.953Z,1.1444
2023-05-08T07:34:18.701Z,1.0500
2023-05-08T07:35:19.340Z,1.1444
2023-05-08T07:36:20.010Z,1.0389
2023-05-08T07:37:20.721Z,1.5444
2023-05-08T07:38:21.396Z,1.6944
2023-05-08T07:39:22.030Z,1.0278
2023-05-08T07:40:22.715Z,2.0722
2023-05-08T07:41:23.433Z,1.5000
2023-05-08T07:42:24.108Z,1.3833
2023-05-08T07:43:24.937Z,1.2389
2023-05-08T07:44:25.601Z,1.4278
2023-05-08T07:45:26.276Z,1.5000
2023-05-08T07:46:27.003Z,1.7333
2023-05-08T07:47:27.695Z,1.6167
2023-05-08T07:48:28.314Z,1.3944
2023-05-08T07:49:28.946Z,1.7444
2023-05-08T07:50:29.610Z,1.7778
2023-05-08T07:51:30.226Z,1.4500
2023-05-08T07:52:30.875Z,2.0389
2023-05-08T07:53:31.513Z,2.1222
2023-05-08T07:54:32.126Z,1.1889
2023-05-08T07:55:32.787Z,1.8167
2023-05-08T07:56:33.468Z,1.9667
2023-05-08T07:57:34.093Z,2.3944
2023-05-08T07:58:34.732Z,1.6222
2023-05-08T07:59:35.416Z,1.3389
2023-05-08T08:00:36.064Z,1.7056
2023-05-08T08:01:36.772Z,1.6889
2023-05-08T08:02:37.521Z,1.5833
2023-05-08T08:03:39.185Z,2.0889
2023-05-08T08:04:40.024Z,1.9444
2023-05-08T08:05:40.601Z,1.2389
2023-05-08T08:06:41.232Z,1.4611
2023-05-08T08:07:41.946Z,2.0389
2023-05-08T08:08:42.611Z,1.8889
2023-05-08T08:09:43.338Z,1.2056
2023-05-08T08:10:43.994Z,2.4000
2023-05-08T08:11:44.760Z,0.9167
2023-05-08T08:12:45.422Z,1.1944
2023-05-08T08:13:46.069Z,1.2389
2023-05-08T08:14:46.692Z,1.1056
2023-05-08T08:15:47.401Z,1.2722
2023-05-08T08:16:48.204Z,0.9556
2023-05-08T08:17:48.994Z,1.6611
2023-05-08T08:18:49.691Z,1.4778
2023-05-08T08:19:50.378Z,2.0611
2023-05-08T08:20:51.039Z,1.0389
2023-05-08T08:21:51.698Z,0.9833
2023-05-08T08:22:52.330Z,0.8278
2023-05-08T08:23:53.024Z,1.1278
2023-05-08T08:24:55.334Z,0.9722
2023-05-08T08:25:56.203Z,2.4667
2023-05-08T08:26:57.008Z,1.5167
2023-05-08T08:27:57.556Z,1.4111
2023-05-08T08:28:58.178Z,1.1056
2023-05-08T08:30:12.163Z,1.1611
2023-05-08T08:30:58.922Z,1.3611
2023-05-08T08:31:59.532Z,1.4000
2023-05-08T08:33:00.250Z,1.4056
2023-05-08T08:34:00.792Z,1.8556
2023-05-08T08:35:01.428Z,2.1944
2023-05-08T08:36:02.066Z,1.6611
2023-05-08T08:37:02.693Z,1.9833
2023-05-08T08:38:03.347Z,1.5333
2023-05-08T08:39:04.012Z,2.4000
2023-05-08T08:40:04.736Z,1.7833
2023-05-08T08:41:05.310Z,1.9222
2023-05-08T08:42:06.354Z,2.7111
2023-05-08T08:43:06.892Z,2.4222
2023-05-08T08:44:07.515Z,1.8056
2023-05-08T08:45:08.171Z,2.7056
2023-05-08T08:46:08.806Z,2.0944
2023-05-08T08:47:09.550Z,2.2889
2023-05-08T08:48:10.209Z,1.8444
2023-05-08T08:49:10.793Z,2.0833
2023-05-08T08:50:14.183Z,1.9556
2023-05-08T08:51:11.952Z,2.1167
2023-05-08T08:52:12.652Z,1.6882
2023-05-08T08:53:13.291Z,1.6333
2023-05-08T08:54:13.936Z,1.9111
2023-05-08T08:55:14.730Z,1.8722
2023-05-08T08:56:15.542Z,2.3389
2023-05-08T08:57:16.233Z,1.9333
2023-05-08T08:58:16.777Z,1.9667
2023-05-08T08:59:17.418Z,2.1000
2023-05-08T09:00:18.053Z,2.7389
2023-05-08T09:01:18.755Z,1.9722
2023-05-08T09:02:19.392Z,1.7000
2023-05-08T09:03:20.171Z,3.0333
2023-05-08T09:04:21.830Z,2.1333
2023-05-08T09:05:22.487Z,2.6167
2023-05-08T09:06:23.110Z,2.5444
2023-05-08T09:07:23.764Z,2.2722
2023-05-08T09:08:24.544Z,2.1833
2023-05-08T09:09:25.207Z,2.5667
2023-05-08T09:10:25.925Z,2.7889
2023-05-08T09:11:26.527Z,2.7667
2023-05-08T09:12:27.238Z,1.9222
2023-05-08T09:13:27.827Z,1.7667
2023-05-08T09:14:28.399Z,2.0056
2023-05-08T09:15:29.027Z,2.0222
2023-05-08T09:16:29.807Z,4.1222
2023-05-08T09:17:30.403Z,3.6889
2023-05-08T09:18:31.128Z,2.4500
2023-05-08T09:19:31.710Z,2.5667
2023-05-08T09:20:32.422Z,2.4167
2023-05-08T09:21:33.060Z,1.8222
2023-05-08T09:22:33.701Z,2.3111
2023-05-08T09:23:34.308Z,1.9889
2023-05-08T09:24:34.976Z,2.0222
2023-05-08T09:25:35.636Z,2.0278
2023-05-08T09:26:36.262Z,2.4778
2023-05-08T09:27:36.937Z,2.0444
2023-05-08T09:28:37.480Z,2.2722
2023-05-08T09:29:38.159Z,2.1056
2023-05-08T09:30:38.762Z,2.1833
2023-05-08T09:31:39.363Z,1.9111
2023-05-08T09:32:40.194Z,2.1444
2023-05-08T09:33:40.837Z,1.6944
2023-05-08T09:34:41.455Z,2.3500
2023-05-08T09:35:42.038Z,1.9278
2023-05-08T09:36:42.668Z,1.6722
2023-05-08T09:37:43.424Z,2.2222
2023-05-08T09:38:44.110Z,2.4278
2023-05-08T09:39:44.749Z,3.3167
2023-05-08T09:40:45.342Z,3.3444
2023-05-08T09:41:46.006Z,2.7278
2023-05-08T09:42:46.680Z,2.5111
2023-05-08T09:43:47.230Z,3.5778
2023-05-08T09:44:48.943Z,2.6667
2023-05-08T09:45:49.575Z,2.2389
2023-05-08T09:46:50.230Z,2.3111
2023-05-08T09:47:50.832Z,2.5389
2023-05-08T09:48:52.522Z,2.8000
2023-05-08T09:49:53.178Z,1.9944
2023-05-08T09:50:53.789Z,1.7889
2023-05-08T09:51:54.494Z,2.3833
2023-05-08T09:52:55.168Z,2.0167
2023-05-08T09:53:55.780Z,2.0444
2023-05-08T09:54:56.436Z,2.1889
2023-05-08T09:55:57.107Z,2.2278
2023-05-08T09:56:57.823Z,2.2667
2023-05-08T09:57:58.635Z,1.7222
2023-05-08T09:58:59.199Z,1.8889
2023-05-08T09:59:59.862Z,1.9889
2023-05-08T10:01:00.574Z,2.1111
2023-05-08T10:02:01.182Z,1.8556
2023-05-08T10:03:01.814Z,1.8667
2023-05-08T10:04:02.458Z,2.2611
2023-05-08T10:05:03.105Z,1.9333
2023-05-08T10:06:03.711Z,2.2333
2023-05-08T10:07:04.369Z,1.7778
2023-05-08T10:08:04.974Z,1.5889
2023-05-08T10:09:05.628Z,1.4833
2023-05-08T10:10:06.316Z,1.3778
2023-05-08T10:11:07.074Z,1.0056
2023-05-08T10:12:07.804Z,1.4278
2023-05-08T10:13:09.583Z,0.8944
2023-05-08T10:14:10.324Z,1.5778
2023-05-08T10:15:11.036Z,2.1833
2023-05-08T10:16:11.750Z,1.6222
2023-05-08T10:17:13.518Z,1.7667
2023-05-08T10:18:14.273Z,1.0444
2023-05-08T10:19:14.980Z,1.0111
2023-05-08T10:20:15.871Z,1.0833
2023-05-08T10:21:16.584Z,1.9889
2023-05-08T10:22:17.298Z,1.5667
2023-05-08T10:23:17.983Z,1.6111
2023-05-08T10:24:18.578Z,2.2222
2023-05-08T10:25:19.247Z,1.8722
2023-05-08T10:26:19.876Z,2.2667
2023-05-08T10:27:20.532Z,2.3222
2023-05-08T10:28:21.270Z,2.2500
2023-05-08T10:29:22.840Z,2.2778
2023-05-08T10:30:23.586Z,1.8167
2023-05-08T10:31:24.346Z,1.6056
2023-05-08T10:32:25.165Z,1.4444
2023-05-08T10:33:25.875Z,1.3056
2023-05-08T10:34:26.530Z,1.2833
2023-05-08T10:35:27.176Z,0.9833
2023-05-08T10:36:29.043Z,0.9889
2023-05-08T10:37:28.284Z,0.7833
2023-05-08T10:38:28.965Z,1.1353
2023-05-08T10:39:29.604Z,0.9722
2023-05-08T10:40:30.286Z,0.9333
2023-05-08T10:41:31.042Z,1.2833
2023-05-08T10:42:31.740Z,0.9833
2023-05-08T10:43:32.483Z,1.0000
2023-05-08T10:44:33.084Z,1.2000
2023-05-08T10:45:33.797Z,1.3167
2023-05-08T10:46:34.520Z,1.1889
2023-05-08T10:47:35.211Z,1.1333
2023-05-08T10:48:35.965Z,1.0611
2023-05-08T10:49:36.688Z,1.5556
2023-05-08T10:50:37.348Z,1.2167
2023-05-08T10:51:38.119Z,1.2222
2023-05-08T10:52:38.803Z,1.3278
2023-05-08T10:53:39.448Z,1.1500
2023-05-08T10:54:40.156Z,1.0889
2023-05-08T10:55:40.858Z,1.3778
2023-05-08T10:56:41.490Z,1.2444
2023-05-08T10:57:42.228Z,0.9778
2023-05-08T10:58:42.932Z,0.9333
2023-05-08T10:59:43.558Z,0.9444
2023-05-08T11:00:44.286Z,1.2833
2023-05-08T11:01:44.966Z,1.0222
2023-05-08T11:02:45.759Z,0.8889
2023-05-08T11:03:46.582Z,1.1778
2023-05-08T11:04:48.364Z,0.9000
2023-05-08T11:05:49.031Z,0.7389
2023-05-08T11:06:49.773Z,0.8778
2023-05-08T11:07:50.511Z,1.2444
2023-05-08T11:08:51.254Z,1.0167
2023-05-08T11:09:51.993Z,1.1667
2023-05-08T11:10:52.718Z,1.6389
2023-05-08T11:11:53.394Z,1.0278
2023-05-08T11:12:54.227Z,1.1000
2023-05-08T11:13:54.865Z,1.3500
2023-05-08T11:14:55.618Z,1.2444
2023-05-08T11:15:56.443Z,1.3556
2023-05-08T11:16:57.055Z,0.7611
2023-05-08T11:17:57.869Z,0.6056
2023-05-08T11:18:58.570Z,0.7333
2023-05-08T11:19:59.357Z,0.6167
2023-05-08T11:21:00.133Z,0.6667
2023-05-08T11:22:00.770Z,0.7778
2023-05-08T11:23:01.501Z,0.7667
2023-05-08T11:24:02.290Z,0.6833
2023-05-08T11:25:02.964Z,1.0889
2023-05-08T11:26:03.738Z,0.8278
2023-05-08T11:27:04.461Z,1.0833
2023-05-08T11:28:05.186Z,0.9278
2023-05-08T11:29:05.927Z,0.7778
2023-05-08T11:30:06.582Z,1.2667
2023-05-08T11:31:07.436Z,1.0444
2023-05-08T11:32:08.152Z,1.5889
2023-05-08T11:33:08.920Z,0.7611
2023-05-08T11:34:09.715Z,0.8111
2023-05-08T11:35:12.108Z,1.0056
2023-05-08T11:36:12.832Z,1.3444
2023-05-08T11:37:13.968Z,1.8500
2023-05-08T11:38:14.721Z,1.1167
2023-05-08T11:39:15.583Z,1.3389
2023-05-08T11:40:16.376Z,1.7000
2023-05-08T11:41:17.036Z,2.1167
2023-05-08T11:42:17.634Z,1.3333
2023-05-08T11:43:18.435Z,3.7389
2023-05-08T11:44:19.221Z,2.1056
2023-05-08T11:45:19.848Z,0.9833
2023-05-08T11:46:20.608Z,1.1056
2023-05-08T11:47:21.421Z,1.0111
2023-05-08T11:48:22.122Z,0.9944
2023-05-08T11:49:26.942Z,1.0833
2023-05-08T11:50:22.958Z,1.5778
2023-05-08T11:51:23.721Z,1.4125
2023-05-08T11:52:24.402Z,1.1889
2023-05-08T11:53:25.162Z,2.4278
2023-05-08T11:54:25.855Z,1.7500
2023-05-08T11:55:26.574Z,1.1944
2023-05-08T11:56:27.202Z,1.8500
2023-05-08T11:57:27.855Z,1.3333
2023-05-08T11:58:28.565Z,1.3056
2023-05-08T11:59:29.219Z,1.3500
2023-05-08T12:00:30.041Z,1.8278
2023-05-08T12:01:30.768Z,1.7778
2023-05-08T12:02:33.342Z,1.3722
2023-05-08T12:03:34.729Z,1.3500
2023-05-08T12:04:35.731Z,1.6778
2023-05-08T12:05:37.334Z,1.6056
2023-05-08T12:06:38.004Z,1.1444
2023-05-08T12:07:38.731Z,1.0889
2023-05-08T12:08:39.377Z,1.0000
2023-05-08T12:09:40.141Z,1.4111
2023-05-08T12:10:40.740Z,2.3222
2023-05-08T12:11:41.584Z,2.2056
2023-05-08T12:12:42.309Z,2.3000
2023-05-08T12:13:43.940Z,1.9167
2023-05-08T12:14:44.637Z,2.0111
2023-05-08T12:15:45.275Z,3.1333
2023-05-08T12:16:45.930Z,2.0000
2023-05-08T12:17:46.566Z,1.7278
2023-05-08T12:18:47.227Z,1.2722
2023-05-08T12:19:47.979Z,1.7667
2023-05-08T12:20:48.586Z,1.5111
2023-05-08T12:21:49.273Z,1.9167
2023-05-08T12:22:49.955Z,1.8056
2023-05-08T12:23:50.586Z,1.3444
2023-05-08T12:24:51.260Z,2.7667
2023-05-08T12:25:53.802Z,2.4556
2023-05-08T12:26:52.479Z,3.0500
2023-05-08T12:27:53.154Z,1.1765
2023-05-08T12:28:53.900Z,1.1389
2023-05-08T12:29:54.621Z,2.2444
2023-05-08T12:30:55.353Z,1.5778
2023-05-08T12:31:56.057Z,1.7611
2023-05-08T12:32:56.733Z,1.3944
2023-05-08T12:33:57.436Z,1.9056
2023-05-08T12:34:58.065Z,1.2444
2023-05-08T12:35:58.809Z,1.3611
2023-05-08T12:36:59.463Z,1.2167
2023-05-08T12:38:00.164Z,1.2889